Terminal Aerodrome Forecast
Issued by NWS

Home | Current Version | Previous Version | Text Only | Print | Product List | Glossary Off
Versions: 1 2 3 4 5 6 7 8 9 10 11 12 13 14 15 16

000
FTUS43 KMPX 240520
TAFRNH
TAF
KRNH 240520Z 2406/2506 30008KT P6SM BKN090
     FM241600 29012G20KT P6SM SCT025 BKN050 PROB30 2419/2423 5SM
      -TSRA BKN040CB
     FM250000 30008KT P6SM SCT050 BKN100=

USA.gov is the U.S. government's official web portal to all federal, state and local government web resources and services.